createdAt,value
2019-02-08T00:05:13.671Z,21.00
2019-02-08T00:07:45.291Z,21.20
2019-02-08T00:10:35.894Z,20.90
2019-02-08T00:13:06.290Z,24.87
2019-02-08T00:15:55.780Z,27.03
2019-02-08T00:18:26.076Z,25.57
2019-02-08T00:23:53.136Z,35.10
2019-02-08T00:26:25.100Z,23.27
2019-02-08T00:28:55.516Z,25.37
2019-02-08T00:31:37.828Z,23.10
2019-02-08T00:34:22.333Z,23.77
2019-02-08T00:36:52.666Z,22.87
2019-02-08T00:39:34.882Z,22.77
2019-02-08T00:42:25.276Z,25.27
2019-02-08T00:44:55.598Z,19.87
2019-02-08T00:47:25.969Z,21.00
2019-02-08T00:50:18.873Z,22.40
2019-02-08T00:53:13.825Z,27.07
2019-02-08T00:55:46.208Z,20.40
2019-02-08T01:04:01.451Z,19.17
2019-02-08T01:06:34.451Z,21.93
2019-02-08T01:12:26.588Z,23.73
2019-02-08T01:18:00.241Z,22.93
2019-02-08T01:20:42.204Z,21.00
2019-02-08T01:25:54.624Z,20.00
2019-02-08T01:28:43.996Z,26.13
2019-02-08T01:31:33.435Z,21.83
2019-02-08T01:34:17.926Z,17.77
2019-02-08T01:39:34.190Z,27.23
2019-02-08T01:42:17.339Z,21.90
2019-02-08T01:44:47.639Z,24.10
2019-02-08T01:47:29.652Z,17.93
2019-02-08T01:50:43.955Z,18.30
2019-02-08T02:04:58.786Z,21.30
2019-02-08T02:07:38.639Z,19.17
2019-02-08T02:10:49.971Z,19.00
2019-02-08T02:13:20.313Z,16.03
2019-02-08T02:16:38.665Z,20.50
2019-02-08T02:18:54.429Z,18.00
2019-02-08T02:21:43.933Z,22.43
2019-02-08T02:24:14.272Z,18.57
2019-02-08T02:26:56.456Z,26.37
2019-02-08T02:29:38.173Z,18.13
2019-02-08T02:32:08.533Z,19.80
2019-02-08T02:34:38.860Z,18.57
2019-02-08T02:37:28.484Z,19.33
2019-02-08T02:39:58.818Z,17.57
2019-02-08T02:42:48.358Z,17.80
2019-02-08T02:45:38.548Z,21.43
2019-02-08T02:48:10.883Z,20.67
2019-02-08T02:50:53.162Z,14.23
2019-02-08T02:53:38.670Z,22.17
2019-02-08T02:56:08.937Z,14.60
2019-02-08T02:58:39.185Z,15.30
2019-02-08T03:01:29.061Z,17.30
2019-02-08T03:06:43.025Z,16.67
2019-02-08T03:09:32.421Z,16.50
2019-02-08T03:12:02.870Z,13.53
2019-02-08T03:14:33.207Z,15.83
2019-02-08T03:17:15.162Z,14.53
2019-02-08T03:19:59.948Z,14.73
2019-02-08T03:22:30.386Z,13.40
2019-02-08T03:25:00.686Z,17.93
2019-02-08T03:27:50.412Z,17.73
2019-02-08T03:33:19.220Z,17.63
2019-02-08T03:35:49.506Z,15.50
2019-02-08T03:38:39.349Z,14.67
2019-02-08T03:44:07.142Z,13.73
2019-02-08T03:46:48.582Z,15.20
2019-02-08T03:49:20.948Z,15.53
2019-02-08T03:51:51.272Z,17.37
2019-02-08T03:57:49.132Z,15.27
2019-02-08T04:00:43.311Z,15.83
2019-02-08T04:03:51.932Z,14.50
2019-02-08T04:09:36.271Z,13.37
2019-02-08T04:12:08.998Z,11.90
2019-02-08T04:14:39.292Z,12.30
2019-02-08T04:17:21.555Z,12.00
2019-02-08T04:20:03.672Z,10.83
2019-02-08T04:22:53.048Z,10.73
2019-02-08T04:25:44.383Z,11.47
2019-02-08T04:28:14.827Z,13.67
2019-02-08T04:30:45.191Z,14.73
2019-02-08T04:33:15.552Z,13.67
2019-02-08T04:36:08.925Z,14.87
2019-02-08T04:38:39.185Z,12.47
2019-02-08T04:41:51.061Z,15.53
2019-02-08T04:44:17.011Z,13.23
2019-02-08T04:50:01.577Z,12.10
2019-02-08T04:52:51.026Z,14.97
2019-02-08T04:55:24.489Z,15.90
2019-02-08T04:58:01.162Z,16.37
2019-02-08T05:00:52.944Z,18.33
2019-02-08T05:03:53.686Z,14.50
2019-02-08T05:09:46.299Z,19.27
2019-02-08T05:12:19.458Z,15.23
2019-02-08T05:17:32.465Z,18.33
2019-02-08T05:20:21.816Z,20.27
2019-02-08T05:22:52.138Z,15.50
2019-02-08T05:25:40.139Z,16.70
2019-02-08T05:28:24.886Z,18.17
2019-02-08T05:31:19.754Z,17.13
2019-02-08T05:34:04.540Z,13.53
2019-02-08T05:36:47.117Z,15.47
2019-02-08T05:39:31.477Z,16.50
2019-02-08T05:42:13.991Z,22.70
2019-02-08T05:44:44.241Z,18.70
2019-02-08T05:47:15.353Z,17.23
2019-02-08T05:49:56.902Z,15.90
2019-02-08T05:52:40.466Z,17.20
2019-02-08T05:55:12.755Z,20.07
2019-02-08T05:58:02.941Z,16.70
2019-02-08T06:01:04.048Z,18.20
2019-02-08T06:06:26.988Z,18.70
2019-02-08T06:08:57.325Z,17.23
2019-02-08T06:11:47.878Z,17.47
2019-02-08T06:14:18.090Z,16.00
2019-02-08T06:19:51.048Z,20.40
2019-02-08T06:22:36.997Z,20.57
2019-02-08T06:28:03.081Z,20.63
2019-02-08T06:30:33.475Z,16.87
2019-02-08T06:33:15.886Z,18.10
2019-02-08T06:35:58.103Z,19.70
2019-02-08T06:38:28.624Z,17.37
2019-02-08T06:41:10.081Z,17.87
2019-02-08T06:43:51.558Z,14.90
2019-02-08T06:46:41.189Z,15.47
2019-02-08T06:49:11.555Z,17.87
2019-02-08T06:51:54.045Z,18.07
2019-02-08T06:54:25.600Z,19.03
2019-02-08T07:00:39.547Z,18.13
2019-02-08T07:09:47.738Z,21.97
2019-02-08T07:15:41.146Z,21.00
2019-02-08T07:18:31.087Z,19.27
2019-02-08T07:24:23.379Z,14.63
2019-02-08T07:27:13.367Z,13.97
2019-02-08T07:30:05.238Z,15.10
2019-02-08T07:39:12.376Z,13.37
2019-02-08T07:42:25.846Z,16.53
2019-02-08T07:45:34.235Z,15.83
2019-02-08T07:48:23.944Z,14.80
2019-02-08T07:51:05.262Z,16.77
2019-02-08T07:54:05.473Z,16.80
2019-02-08T07:57:13.763Z,16.00
2019-02-08T08:00:22.722Z,15.50
2019-02-08T08:03:11.922Z,14.70
2019-02-08T08:06:21.348Z,16.30
2019-02-08T08:09:10.498Z,16.37
2019-02-08T08:12:01.584Z,12.27
2019-02-08T08:15:03.486Z,19.17
2019-02-08T08:17:47.599Z,13.53
2019-02-08T08:21:08.503Z,12.37
2019-02-08T08:24:23.123Z,12.40
2019-02-08T08:26:49.914Z,19.87
2019-02-08T08:29:39.367Z,18.17
2019-02-08T08:32:29.062Z,13.40
2019-02-08T08:35:37.855Z,11.30
2019-02-08T08:38:46.361Z,15.53
2019-02-08T08:45:15.821Z,12.43
2019-02-08T08:48:24.553Z,18.90
2019-02-08T08:51:33.364Z,13.20
2019-02-08T08:54:45.088Z,12.33
2019-02-08T08:57:45.382Z,12.40
2019-02-08T09:01:15.510Z,12.43
2019-02-08T09:04:27.101Z,14.73
2019-02-08T09:07:36.159Z,12.53
2019-02-08T09:10:46.210Z,11.87
2019-02-08T09:17:17.846Z,11.03
2019-02-08T09:20:26.632Z,10.57
2019-02-08T09:23:35.107Z,11.77
2019-02-08T09:26:43.977Z,15.03
2019-02-08T09:29:52.445Z,9.63
2019-02-08T09:36:25.092Z,13.67
2019-02-08T09:39:34.115Z,12.87
2019-02-08T09:42:42.594Z,10.87
2019-02-08T09:45:51.391Z,9.00
2019-02-08T09:48:59.860Z,10.30
2019-02-08T09:52:08.725Z,10.00
2019-02-08T09:55:19.254Z,13.77
2019-02-08T09:58:29.966Z,14.13
2019-02-08T10:01:29.503Z,9.97
2019-02-08T10:04:38.126Z,8.53
2019-02-08T10:07:48.261Z,10.63
2019-02-08T10:14:13.356Z,12.80
2019-02-08T10:20:42.148Z,12.70
2019-02-08T10:23:51.690Z,14.27
2019-02-08T10:27:01.883Z,12.93
2019-02-08T10:30:11.351Z,10.93
2019-02-08T10:33:19.947Z,11.13
2019-02-08T10:36:28.744Z,9.20
2019-02-08T10:39:37.209Z,10.43
2019-02-08T10:50:02.366Z,11.93
2019-02-08T10:56:45.193Z,13.33
2019-02-08T10:59:48.960Z,8.17
2019-02-08T11:02:57.695Z,14.37
2019-02-08T11:06:06.323Z,9.07
2019-02-08T11:12:48.159Z,12.70
2019-02-08T11:16:16.201Z,9.53
2019-02-08T11:19:25.112Z,13.47
2019-02-08T11:22:16.375Z,9.77
2019-02-08T11:24:52.134Z,6.57
2019-02-08T11:27:25.421Z,7.23
2019-02-08T11:30:08.693Z,9.70
2019-02-08T11:32:44.017Z,9.23
2019-02-08T11:35:25.971Z,6.83
2019-02-08T11:37:56.291Z,8.40
2019-02-08T11:40:28.295Z,9.30
2019-02-08T11:45:52.414Z,7.00
2019-02-08T11:48:27.314Z,7.20
2019-02-08T11:54:13.116Z,9.57
2019-02-08T12:00:29.310Z,9.97
2019-02-08T12:03:20.406Z,7.80
2019-02-08T12:05:50.790Z,7.23
2019-02-08T12:08:35.432Z,7.00
2019-02-08T12:11:10.000Z,7.80
2019-02-08T12:14:18.472Z,5.67
2019-02-08T12:17:13.387Z,6.73
2019-02-08T12:23:26.823Z,6.90
2019-02-08T12:32:16.263Z,7.57
2019-02-08T12:34:58.394Z,6.37
2019-02-08T12:37:45.416Z,8.07
2019-02-08T12:40:15.799Z,8.00
2019-02-08T12:43:07.159Z,7.17
2019-02-08T12:45:52.192Z,11.40
2019-02-08T12:48:31.112Z,8.37
2019-02-08T12:51:14.547Z,7.83
2019-02-08T12:56:56.667Z,5.63
2019-02-08T13:06:05.573Z,5.73
2019-02-08T13:13:41.301Z,11.53
2019-02-08T13:16:09.403Z,9.03
2019-02-08T13:24:57.212Z,7.23
2019-02-08T13:27:52.482Z,7.13
2019-02-08T13:30:45.886Z,5.60
2019-02-08T13:33:44.943Z,8.37
2019-02-08T13:39:40.781Z,10.07
2019-02-08T13:42:11.669Z,4.63
2019-02-08T13:44:45.129Z,6.60
2019-02-08T13:47:26.873Z,5.77
2019-02-08T13:50:16.755Z,8.60
2019-02-08T13:53:00.445Z,8.10
2019-02-08T14:07:26.797Z,10.23
2019-02-08T14:10:09.524Z,9.93
2019-02-08T14:13:22.519Z,9.97
2019-02-08T14:20:24.644Z,8.93
2019-02-08T14:26:18.553Z,12.23
2019-02-08T14:29:09.444Z,9.23
2019-02-08T14:34:46.265Z,7.23
2019-02-08T14:37:35.540Z,14.50
2019-02-08T14:44:15.666Z,6.33
2019-02-08T14:47:28.701Z,8.73
2019-02-08T14:59:34.921Z,14.10
2019-02-08T15:05:29.046Z,11.33
2019-02-08T15:08:01.175Z,13.83
2019-02-08T15:10:34.152Z,12.07
2019-02-08T15:13:18.326Z,12.20
2019-02-08T15:15:42.195Z,16.50
2019-02-08T15:18:31.901Z,12.73
2019-02-08T15:21:17.870Z,15.50
2019-02-08T15:24:20.296Z,12.90
2019-02-08T15:27:04.881Z,11.43
2019-02-08T15:39:31.838Z,13.13
2019-02-08T15:41:53.010Z,10.77
2019-02-08T15:47:29.813Z,11.03
2019-02-08T15:50:24.338Z,9.23
2019-02-08T15:52:55.019Z,13.13
2019-02-08T15:55:27.356Z,13.53
2019-02-08T15:58:17.045Z,9.23
2019-02-08T16:00:47.302Z,12.83
2019-02-08T16:03:25.648Z,10.17
2019-02-08T16:06:35.308Z,6.87
2019-02-08T16:12:07.848Z,8.70
2019-02-08T16:15:35.633Z,12.47
2019-02-08T16:18:06.095Z,13.07
2019-02-08T16:23:38.670Z,11.47
2019-02-08T16:27:08.112Z,12.60
2019-02-08T16:32:51.004Z,12.40
2019-02-08T16:35:23.551Z,14.43
2019-02-08T16:38:29.896Z,12.57
2019-02-08T16:44:12.093Z,16.67
2019-02-08T16:46:42.365Z,12.40
2019-02-08T16:49:35.946Z,14.63
2019-02-08T16:52:26.966Z,19.60
2019-02-08T16:54:57.259Z,16.40
2019-02-08T16:57:49.211Z,13.50
2019-02-08T17:00:33.405Z,19.90
2019-02-08T17:03:24.744Z,13.30
2019-02-08T17:05:55.048Z,15.70
2019-02-08T17:08:28.927Z,17.97
2019-02-08T17:11:01.425Z,14.07
2019-02-08T17:13:50.866Z,17.27
2019-02-08T17:19:17.305Z,22.83
2019-02-08T17:21:47.563Z,19.40
2019-02-08T17:24:30.137Z,18.07
2019-02-08T17:27:08.596Z,24.33
2019-02-08T17:30:37.801Z,19.90
2019-02-08T17:33:27.888Z,18.00
2019-02-08T17:36:17.143Z,16.13
2019-02-08T17:39:28.119Z,18.83
2019-02-08T17:41:58.500Z,19.07
2019-02-08T17:44:28.859Z,17.37
2019-02-08T17:51:12.035Z,20.40
2019-02-08T17:53:59.043Z,23.23
2019-02-08T17:56:44.206Z,19.10
2019-02-08T17:59:27.523Z,17.27
2019-02-08T18:01:57.778Z,18.17
2019-02-08T18:04:38.953Z,17.90
2019-02-08T18:13:23.989Z,15.90
2019-02-08T18:18:53.792Z,14.43
2019-02-08T18:24:48.310Z,19.37
2019-02-08T18:27:39.321Z,14.17
2019-02-08T18:30:33.256Z,12.00
2019-02-08T18:39:09.023Z,11.93
2019-02-08T18:41:59.789Z,12.70
2019-02-08T18:47:31.715Z,15.40
2019-02-08T18:50:02.096Z,14.77
2019-02-08T18:52:48.328Z,11.40
2019-02-08T18:55:11.636Z,13.57
2019-02-08T18:57:58.113Z,11.60
2019-02-08T19:00:49.830Z,11.23
2019-02-08T19:03:39.839Z,8.83
2019-02-08T19:06:21.412Z,12.23
2019-02-08T19:09:10.832Z,11.30
2019-02-08T19:14:58.370Z,10.60
2019-02-08T19:32:44.089Z,10.57
2019-02-08T19:35:28.272Z,9.03
2019-02-08T19:44:16.200Z,12.57
2019-02-08T19:47:26.926Z,12.23
2019-02-08T19:53:04.680Z,7.27
2019-02-08T19:55:34.940Z,10.47
2019-02-08T19:58:24.579Z,10.00
2019-02-08T20:01:13.987Z,10.53
2019-02-08T20:03:46.196Z,10.00
2019-02-08T20:06:28.471Z,8.00
2019-02-08T20:09:02.180Z,13.17
2019-02-08T20:11:34.174Z,8.40
2019-02-08T20:14:20.336Z,8.80
2019-02-08T20:17:09.818Z,9.73
2019-02-08T20:19:41.190Z,8.57
2019-02-08T20:25:39.021Z,9.87
2019-02-08T20:31:31.013Z,7.93
2019-02-08T20:46:03.720Z,9.37
2019-02-08T20:52:08.367Z,9.70
2019-02-08T20:55:19.179Z,9.63
2019-02-08T20:57:52.464Z,8.77
2019-02-08T21:03:30.996Z,9.77
2019-02-08T21:06:26.764Z,11.67
2019-02-08T21:15:12.975Z,9.30
2019-02-08T21:18:22.804Z,10.47
2019-02-08T21:20:54.070Z,8.27
2019-02-08T21:23:37.374Z,9.23
2019-02-08T21:26:22.338Z,9.00
2019-02-08T21:28:57.909Z,9.80
2019-02-08T21:32:03.226Z,10.33
2019-02-08T21:37:16.138Z,9.37
2019-02-08T21:40:06.476Z,8.67
2019-02-08T21:42:51.428Z,8.27
2019-02-08T21:45:43.644Z,8.60
2019-02-08T21:51:52.678Z,10.40
2019-02-08T21:54:42.418Z,7.07
2019-02-08T21:57:20.557Z,8.93
2019-02-08T22:02:54.927Z,8.73
2019-02-08T22:05:55.109Z,8.37
2019-02-08T22:11:51.308Z,7.33
2019-02-08T22:14:23.375Z,6.03
2019-02-08T22:16:53.655Z,7.70
2019-02-08T22:19:54.598Z,10.27
2019-02-08T22:22:25.348Z,8.87
2019-02-08T22:27:58.619Z,8.20
2019-02-08T22:30:31.869Z,9.50
2019-02-08T22:36:26.969Z,6.87
2019-02-08T22:39:16.367Z,5.83
2019-02-08T22:41:46.836Z,7.67
2019-02-08T22:44:42.649Z,8.77
2019-02-08T22:47:13.032Z,8.10
2019-02-08T22:49:43.347Z,6.47
2019-02-08T22:52:25.844Z,6.07
2019-02-08T22:55:08.062Z,5.47
2019-02-08T23:04:28.563Z,7.47
2019-02-08T23:06:58.881Z,7.20
2019-02-08T23:09:40.416Z,5.03
2019-02-08T23:12:22.590Z,5.07
2019-02-08T23:15:25.532Z,5.67
2019-02-08T23:20:56.054Z,8.50
2019-02-08T23:27:00.805Z,3.87
2019-02-08T23:29:33.413Z,4.60
2019-02-08T23:32:11.521Z,3.83
2019-02-08T23:34:53.778Z,6.03
2019-02-08T23:37:36.661Z,4.37
2019-02-08T23:40:07.097Z,2.60
2019-02-08T23:42:49.177Z,5.23
2019-02-08T23:45:31.515Z,2.93
2019-02-08T23:51:07.523Z,2.77
2019-02-08T23:53:49.189Z,2.83
2019-02-08T23:56:31.512Z,2.30
2019-02-08T23:59:01.778Z,3.87
